sensor_id;sensor_type;location;lat;lon;timestamp;pressure;altitude;pressure_sealevel;temperature;humidity
10852;BME280;5479;52.046;6.314;2023-04-29T00:02:07;101258.97;;;10.29;100.00
10852;BME280;5479;52.046;6.314;2023-04-29T00:04:34;101263.06;;;10.17;100.00
10852;BME280;5479;52.046;6.314;2023-04-29T00:07:02;101267.06;;;10.26;100.00
10852;BME280;5479;52.046;6.314;2023-04-29T00:09:31;101263.31;;;10.30;100.00
10852;BME280;5479;52.046;6.314;2023-04-29T00:11:59;101270.56;;;10.26;100.00
10852;BME280;5479;52.046;6.314;2023-04-29T00:14:29;101270.78;;;10.22;100.00
10852;BME280;5479;52.046;6.314;2023-04-29T00:16:57;101274.66;;;10.15;100.00
10852;BME280;5479;52.046;6.314;2023-04-29T00:19:25;101273.94;;;10.11;100.00
10852;BME280;5479;52.046;6.314;2023-04-29T00:21:54;101277.78;;;10.23;100.00
10852;BME280;5479;52.046;6.314;2023-04-29T00:24:22;101276.94;;;10.22;100.00
10852;BME280;5479;52.046;6.314;2023-04-29T00:26:50;101281.44;;;10.20;100.00
10852;BME280;5479;52.046;6.314;2023-04-29T00:29:17;101281.84;;;10.13;100.00
10852;BME280;5479;52.046;6.314;2023-04-29T00:31:47;101290.97;;;10.06;100.00
10852;BME280;5479;52.046;6.314;2023-04-29T00:34:15;101292.53;;;10.10;100.00
10852;BME280;5479;52.046;6.314;2023-04-29T00:36:43;101292.69;;;10.07;100.00
10852;BME280;5479;52.046;6.314;2023-04-29T00:39:11;101297.91;;;10.08;100.00
10852;BME280;5479;52.046;6.314;2023-04-29T00:41:40;101304.91;;;10.09;100.00
10852;BME280;5479;52.046;6.314;2023-04-29T00:44:08;101299.69;;;10.08;100.00
10852;BME280;5479;52.046;6.314;2023-04-29T00:46:36;101310.34;;;10.06;100.00
10852;BME280;5479;52.046;6.314;2023-04-29T00:49:05;101310.88;;;9.96;100.00
10852;BME280;5479;52.046;6.314;2023-04-29T00:51:35;101307.22;;;9.98;100.00
10852;BME280;5479;52.046;6.314;2023-04-29T00:54:04;101309.47;;;10.06;100.00
10852;BME280;5479;52.046;6.314;2023-04-29T00:56:34;101315.28;;;9.95;100.00
10852;BME280;5479;52.046;6.314;2023-04-29T00:59:02;101317.81;;;9.98;100.00
10852;BME280;5479;52.046;6.314;2023-04-29T01:01:31;101318.03;;;9.94;100.00
10852;BME280;5479;52.046;6.314;2023-04-29T01:03:59;101318.03;;;9.94;100.00
10852;BME280;5479;52.046;6.314;2023-04-29T01:06:40;101320.25;;;10.03;100.00
10852;BME280;5479;52.046;6.314;2023-04-29T01:09:21;101333.03;;;9.93;100.00
10852;BME280;5479;52.046;6.314;2023-04-29T01:12:01;101324.41;;;9.90;100.00
10852;BME280;5479;52.046;6.314;2023-04-29T01:14:33;101333.91;;;9.94;100.00
10852;BME280;5479;52.046;6.314;2023-04-29T01:17:05;101329.38;;;9.96;100.00
10852;BME280;5479;52.046;6.314;2023-04-29T01:19:43;101337.28;;;9.97;100.00
10852;BME280;5479;52.046;6.314;2023-04-29T01:22:15;101332.91;;;9.96;100.00
10852;BME280;5479;52.046;6.314;2023-04-29T01:24:47;101345.91;;;10.01;100.00
10852;BME280;5479;52.046;6.314;2023-04-29T01:27:21;101345.50;;;9.91;100.00
10852;BME280;5479;52.046;6.314;2023-04-29T01:29:56;101345.34;;;9.94;100.00
10852;BME280;5479;52.046;6.314;2023-04-29T01:32:34;101349.25;;;10.04;100.00
10852;BME280;5479;52.046;6.314;2023-04-29T01:35:12;101351.19;;;10.01;100.00
10852;BME280;5479;52.046;6.314;2023-04-29T01:37:51;101349.50;;;10.00;100.00
10852;BME280;5479;52.046;6.314;2023-04-29T01:40:25;101359.94;;;10.03;100.00
10852;BME280;5479;52.046;6.314;2023-04-29T01:43:01;101366.06;;;10.03;100.00
10852;BME280;5479;52.046;6.314;2023-04-29T01:45:31;101359.34;;;9.96;100.00
10852;BME280;5479;52.046;6.314;2023-04-29T01:48:00;101366.50;;;9.94;100.00
10852;BME280;5479;52.046;6.314;2023-04-29T01:50:30;101363.50;;;9.83;100.00
10852;BME280;5479;52.046;6.314;2023-04-29T01:52:58;101367.53;;;9.92;100.00
10852;BME280;5479;52.046;6.314;2023-04-29T01:55:27;101366.75;;;9.90;100.00
10852;BME280;5479;52.046;6.314;2023-04-29T01:57:55;101362.50;;;9.86;100.00
10852;BME280;5479;52.046;6.314;2023-04-29T02:00:23;101363.50;;;9.83;100.00
10852;BME280;5479;52.046;6.314;2023-04-29T02:02:51;101367.53;;;9.92;100.00
10852;BME280;5479;52.046;6.314;2023-04-29T02:05:23;101369.53;;;9.87;100.00
10852;BME280;5479;52.046;6.314;2023-04-29T02:07:57;101372.09;;;9.88;100.00
10852;BME280;5479;52.046;6.314;2023-04-29T02:10:26;101376.50;;;9.88;100.00
10852;BME280;5479;52.046;6.314;2023-04-29T02:12:56;101376.38;;;9.91;100.00
10852;BME280;5479;52.046;6.314;2023-04-29T02:15:25;101379.16;;;9.88;100.00
10852;BME280;5479;52.046;6.314;2023-04-29T02:17:54;101388.81;;;9.89;100.00
10852;BME280;5479;52.046;6.314;2023-04-29T02:20:23;101388.09;;;9.85;100.00
10852;BME280;5479;52.046;6.314;2023-04-29T02:22:51;101389.69;;;9.89;100.00
10852;BME280;5479;52.046;6.314;2023-04-29T02:25:19;101388.81;;;9.89;100.00
10852;BME280;5479;52.046;6.314;2023-04-29T02:27:47;101401.47;;;9.82;100.00
10852;BME280;5479;52.046;6.314;2023-04-29T02:30:16;101407.63;;;9.83;100.00
10852;BME280;5479;52.046;6.314;2023-04-29T02:32:44;101406.75;;;9.82;100.00
10852;BME280;5479;52.046;6.314;2023-04-29T02:35:12;101406.84;;;9.81;100.00
10852;BME280;5479;52.046;6.314;2023-04-29T02:37:40;101416.56;;;9.80;100.00
10852;BME280;5479;52.046;6.314;2023-04-29T02:40:09;101420.06;;;9.81;100.00
10852;BME280;5479;52.046;6.314;2023-04-29T02:42:37;101413.91;;;9.80;100.00
10852;BME280;5479;52.046;6.314;2023-04-29T02:45:06;101423.75;;;9.77;100.00
10852;BME280;5479;52.046;6.314;2023-04-29T02:47:35;101423.63;;;9.80;100.00
10852;BME280;5479;52.046;6.314;2023-04-29T02:50:04;101419.97;;;9.82;100.00
10852;BME280;5479;52.046;6.314;2023-04-29T02:52:36;101424.84;;;9.73;100.00
10852;BME280;5479;52.046;6.314;2023-04-29T02:55:07;101429.72;;;9.82;100.00
10852;BME280;5479;52.046;6.314;2023-04-29T02:57:35;101432.38;;;9.82;100.00
10852;BME280;5479;52.046;6.314;2023-04-29T03:00:04;101445.09;;;9.74;100.00
10852;BME280;5479;52.046;6.314;2023-04-29T03:02:32;101445.00;;;9.75;100.00
10852;BME280;5479;52.046;6.314;2023-04-29T03:05:02;101447.56;;;9.77;100.00
10852;BME280;5479;52.046;6.314;2023-04-29T03:07:30;101447.66;;;9.75;100.00
10852;BME280;5479;52.046;6.314;2023-04-29T03:09:58;101449.16;;;9.81;100.00
10852;BME280;5479;52.046;6.314;2023-04-29T03:12:26;101452.72;;;9.80;100.00
10852;BME280;5479;52.046;6.314;2023-04-29T03:14:54;101451.84;;;9.79;100.00
10852;BME280;5479;52.046;6.314;2023-04-29T03:17:22;101453.59;;;9.80;100.00
10852;BME280;5479;52.046;6.314;2023-04-29T03:19:50;101457.00;;;9.82;100.00
10852;BME280;5479;52.046;6.314;2023-04-29T03:22:21;101463.16;;;9.83;100.00
10852;BME280;5479;52.046;6.314;2023-04-29T03:24:49;101459.75;;;9.81;100.00
10852;BME280;5479;52.046;6.314;2023-04-29T03:27:16;101461.59;;;9.79;100.00
10852;BME280;5479;52.046;6.314;2023-04-29T03:29:45;101458.75;;;9.83;100.00
10852;BME280;5479;52.046;6.314;2023-04-29T03:32:13;101460.00;;;9.75;100.00
10852;BME280;5479;52.046;6.314;2023-04-29T03:34:40;101472.59;;;9.69;100.00
10852;BME280;5479;52.046;6.314;2023-04-29T03:37:08;101466.31;;;9.72;100.00
10852;BME280;5479;52.046;6.314;2023-04-29T03:39:41;101465.44;;;9.71;100.00
10852;BME280;5479;52.046;6.314;2023-04-29T03:42:09;101470.06;;;9.87;100.00
10852;BME280;5479;52.046;6.314;2023-04-29T03:44:37;101468.72;;;9.77;100.00
10852;BME280;5479;52.046;6.314;2023-04-29T03:47:05;101472.19;;;9.79;100.00
10852;BME280;5479;52.046;6.314;2023-04-29T03:49:33;101478.13;;;9.84;100.00
10852;BME280;5479;52.046;6.314;2023-04-29T03:52:01;101481.63;;;9.84;100.00
10852;BME280;5479;52.046;6.314;2023-04-29T03:54:30;101471.25;;;9.80;100.00
10852;BME280;5479;52.046;6.314;2023-04-29T03:57:00;101481.59;;;9.65;100.00
10852;BME280;5479;52.046;6.314;2023-04-29T03:59:29;101489.38;;;9.68;100.00
10852;BME280;5479;52.046;6.314;2023-04-29T04:01:57;101486.88;;;9.65;100.00
10852;BME280;5479;52.046;6.314;2023-04-29T04:04:25;101483.44;;;9.63;100.00
10852;BME280;5479;52.046;6.314;2023-04-29T04:06:53;101489.19;;;9.73;100.00
10852;BME280;5479;52.046;6.314;2023-04-29T04:09:21;101502.47;;;9.71;100.00
10852;BME280;5479;52.046;6.314;2023-04-29T04:11:49;101503.41;;;9.70;100.00
10852;BME280;5479;52.046;6.314;2023-04-29T04:14:18;101498.31;;;9.66;100.00
10852;BME280;5479;52.046;6.314;2023-04-29T04:16:46;101511.59;;;9.64;100.00
10852;BME280;5479;52.046;6.314;2023-04-29T04:19:16;101506.31;;;9.64;100.00
10852;BME280;5479;52.046;6.314;2023-04-29T04:21:44;101513.03;;;9.71;100.00
10852;BME280;5479;52.046;6.314;2023-04-29T04:24:12;101511.03;;;9.77;100.00
10852;BME280;5479;52.046;6.314;2023-04-29T04:26:40;101523.22;;;9.60;100.00
10852;BME280;5479;52.046;6.314;2023-04-29T04:29:08;101521.94;;;9.70;100.00
10852;BME280;5479;52.046;6.314;2023-04-29T04:31:37;101519.81;;;9.79;100.00
10852;BME280;5479;52.046;6.314;2023-04-29T04:34:05;101534.34;;;9.68;100.00
10852;BME280;5479;52.046;6.314;2023-04-29T04:36:38;101528.59;;;9.59;100.00
10852;BME280;5479;52.046;6.314;2023-04-29T04:39:06;101534.34;;;9.68;100.00
10852;BME280;5479;52.046;6.314;2023-04-29T04:41:34;101533.81;;;9.60;100.00
10852;BME280;5479;52.046;6.314;2023-04-29T04:44:02;101541.22;;;9.73;100.00
10852;BME280;5479;52.046;6.314;2023-04-29T04:46:31;101532.63;;;9.67;100.00
10852;BME280;5479;52.046;6.314;2023-04-29T04:49:00;101544.38;;;9.60;100.00
10852;BME280;5479;52.046;6.314;2023-04-29T04:51:28;101540.81;;;9.61;100.00
10852;BME280;5479;52.046;6.314;2023-04-29T04:53:56;101549.28;;;9.69;100.00
10852;BME280;5479;52.046;6.314;2023-04-29T04:56:24;101553.78;;;9.67;100.00
10852;BME280;5479;52.046;6.314;2023-04-29T04:58:52;101552.19;;;9.63;100.00
10852;BME280;5479;52.046;6.314;2023-04-29T05:01:22;101555.78;;;9.62;100.00
10852;BME280;5479;52.046;6.314;2023-04-29T05:03:50;101562.50;;;9.69;100.00
10852;BME280;5479;52.046;6.314;2023-04-29T05:06:20;101556.47;;;9.66;100.00
10852;BME280;5479;52.046;6.314;2023-04-29T05:08:48;101569.66;;;9.67;100.00
10852;BME280;5479;52.046;6.314;2023-04-29T05:11:16;101565.41;;;9.84;100.00
10852;BME280;5479;52.046;6.314;2023-04-29T05:13:43;101567.94;;;9.66;100.00
10852;BME280;5479;52.046;6.314;2023-04-29T05:16:11;101572.34;;;9.66;100.00
10852;BME280;5479;52.046;6.314;2023-04-29T05:18:39;101576.66;;;9.68;100.00
10852;BME280;5479;52.046;6.314;2023-04-29T05:21:09;101577.34;;;9.74;100.00
10852;BME280;5479;52.046;6.314;2023-04-29T05:23:39;101583.41;;;9.76;100.00
10852;BME280;5479;52.046;6.314;2023-04-29T05:26:09;101581.44;;;9.81;100.00
10852;BME280;5479;52.046;6.314;2023-04-29T05:28:36;101577.91;;;9.80;100.00
10852;BME280;5479;52.046;6.314;2023-04-29T05:31:04;101587.09;;;9.71;100.00
10852;BME280;5479;52.046;6.314;2023-04-29T05:33:32;101587.72;;;9.78;100.00
10852;BME280;5479;52.046;6.314;2023-04-29T05:36:02;101592.66;;;9.86;100.00
10852;BME280;5479;52.046;6.314;2023-04-29T05:38:30;101600.25;;;9.93;100.00
10852;BME280;5479;52.046;6.314;2023-04-29T05:40:59;101599.91;;;10.01;100.00
10852;BME280;5479;52.046;6.314;2023-04-29T05:43:28;101598.72;;;10.08;100.00
10852;BME280;5479;52.046;6.314;2023-04-29T05:45:56;101607.16;;;10.17;100.00
10852;BME280;5479;52.046;6.314;2023-04-29T05:48:24;101609.06;;;10.14;100.00
10852;BME280;5479;52.046;6.314;2023-04-29T05:50:52;101613.78;;;10.06;100.00
10852;BME280;5479;52.046;6.314;2023-04-29T05:53:20;101615.09;;;10.17;100.00
10852;BME280;5479;52.046;6.314;2023-04-29T05:55:49;101610.09;;;10.10;100.00
10852;BME280;5479;52.046;6.314;2023-04-29T05:58:19;101624.13;;;10.12;100.00
10852;BME280;5479;52.046;6.314;2023-04-29T06:00:49;101624.91;;;10.34;100.00
10852;BME280;5479;52.046;6.314;2023-04-29T06:03:17;101621.63;;;10.29;100.00
10852;BME280;5479;52.046;6.314;2023-04-29T06:05:45;101626.78;;;10.32;100.00
10852;BME280;5479;52.046;6.314;2023-04-29T06:08:13;101626.50;;;10.38;100.00
10852;BME280;5479;52.046;6.314;2023-04-29T06:10:41;101636.88;;;10.43;100.00
10852;BME280;5479;52.046;6.314;2023-04-29T06:13:09;101642.69;;;10.51;100.00
10852;BME280;5479;52.046;6.314;2023-04-29T06:15:38;101642.81;;;10.29;100.00
10852;BME280;5479;52.046;6.314;2023-04-29T06:18:06;101645.03;;;10.38;100.00
10852;BME280;5479;52.046;6.314;2023-04-29T06:20:34;101645.09;;;10.37;100.00
10852;BME280;5479;52.046;6.314;2023-04-29T06:23:03;101648.63;;;10.37;100.00
10852;BME280;5479;52.046;6.314;2023-04-29T06:25:31;101650.56;;;10.52;100.00
10852;BME280;5479;52.046;6.314;2023-04-29T06:27:59;101650.78;;;10.48;100.00
10852;BME280;5479;52.046;6.314;2023-04-29T06:30:27;101649.25;;;10.42;100.00
10852;BME280;5479;52.046;6.314;2023-04-29T06:32:56;101659.16;;;10.57;100.00
10852;BME280;5479;52.046;6.314;2023-04-29T06:35:24;101658.50;;;10.52;100.00
10852;BME280;5479;52.046;6.314;2023-04-29T06:37:52;101664.25;;;10.62;100.00
10852;BME280;5479;52.046;6.314;2023-04-29T06:40:22;101672.84;;;10.67;100.00
10852;BME280;5479;52.046;6.314;2023-04-29T06:42:50;101670.78;;;10.73;100.00
10852;BME280;5479;52.046;6.314;2023-04-29T06:45:18;101679.84;;;10.68;100.00
10852;BME280;5479;52.046;6.314;2023-04-29T06:47:46;101687.03;;;10.84;100.00
10852;BME280;5479;52.046;6.314;2023-04-29T06:50:16;101688.25;;;10.77;100.00
10852;BME280;5479;52.046;6.314;2023-04-29T06:52:44;101692.59;;;10.60;100.00
10852;BME280;5479;52.046;6.314;2023-04-29T06:55:12;101692.75;;;10.75;100.00
10852;BME280;5479;52.046;6.314;2023-04-29T06:57:40;101699.53;;;10.62;100.00
10852;BME280;5479;52.046;6.314;2023-04-29T07:00:08;101691.03;;;10.74;100.00
10852;BME280;5479;52.046;6.314;2023-04-29T07:02:37;101699.72;;;10.97;100.00
10852;BME280;5479;52.046;6.314;2023-04-29T07:05:08;101708.19;;;10.86;100.00
10852;BME280;5479;52.046;6.314;2023-04-29T07:07:38;101709.00;;;10.86;100.00
10852;BME280;5479;52.046;6.314;2023-04-29T07:10:07;101708.22;;;10.84;100.00
10852;BME280;5479;52.046;6.314;2023-04-29T07:12:36;101714.53;;;11.01;100.00
10852;BME280;5479;52.046;6.314;2023-04-29T07:15:05;101721.63;;;11.00;100.00
10852;BME280;5479;52.046;6.314;2023-04-29T07:17:33;101725.28;;;11.16;100.00
10852;BME280;5479;52.046;6.314;2023-04-29T07:20:01;101725.22;;;11.18;100.00
10852;BME280;5479;52.046;6.314;2023-04-29T07:22:29;101727.25;;;11.13;100.00
10852;BME280;5479;52.046;6.314;2023-04-29T07:24:59;101736.66;;;11.37;100.00
10852;BME280;5479;52.046;6.314;2023-04-29T07:27:26;101738.81;;;11.47;100.00
10852;BME280;5479;52.046;6.314;2023-04-29T07:29:55;101751.16;;;11.30;100.00
10852;BME280;5479;52.046;6.314;2023-04-29T07:32:23;101750.72;;;11.39;100.00
10852;BME280;5479;52.046;6.314;2023-04-29T07:34:51;101754.59;;;11.32;100.00
10852;BME280;5479;52.046;6.314;2023-04-29T07:37:19;101757.03;;;11.55;100.00
10852;BME280;5479;52.046;6.314;2023-04-29T07:39:47;101762.47;;;11.52;100.00
10852;BME280;5479;52.046;6.314;2023-04-29T07:42:16;101767.13;;;11.47;100.00
10852;BME280;5479;52.046;6.314;2023-04-29T07:44:45;101757.66;;;11.60;100.00
10852;BME280;5479;52.046;6.314;2023-04-29T07:47:15;101766.53;;;11.59;100.00
10852;BME280;5479;52.046;6.314;2023-04-29T07:49:43;101768.50;;;11.56;100.00
10852;BME280;5479;52.046;6.314;2023-04-29T07:52:11;101772.22;;;11.70;100.00
10852;BME280;5479;52.046;6.314;2023-04-29T07:54:39;101772.34;;;11.67;100.00
10852;BME280;5479;52.046;6.314;2023-04-29T07:57:07;101779.38;;;11.68;100.00
10852;BME280;5479;52.046;6.314;2023-04-29T07:59:36;101787.84;;;11.76;100.00
10852;BME280;5479;52.046;6.314;2023-04-29T08:02:05;101792.69;;;11.85;100.00
10852;BME280;5479;52.046;6.314;2023-04-29T08:04:33;101791.91;;;12.19;100.00
10852;BME280;5479;52.046;6.314;2023-04-29T08:07:03;101800.44;;;12.43;100.00
10852;BME280;5479;52.046;6.314;2023-04-29T08:09:30;101794.31;;;12.24;100.00
10852;BME280;5479;52.046;6.314;2023-04-29T08:11:58;101795.94;;;12.78;100.00
10852;BME280;5479;52.046;6.314;2023-04-29T08:14:27;101798.41;;;12.65;100.00
10852;BME280;5479;52.046;6.314;2023-04-29T08:16:56;101802.44;;;12.72;100.00
10852;BME280;5479;52.046;6.314;2023-04-29T08:19:24;101807.59;;;12.75;100.00
10852;BME280;5479;52.046;6.314;2023-04-29T08:21:52;101814.94;;;12.70;100.00
10852;BME280;5479;52.046;6.314;2023-04-29T08:24:20;101812.25;;;12.87;100.00
10852;BME280;5479;52.046;6.314;2023-04-29T08:26:50;101813.50;;;12.97;100.00
10852;BME280;5479;52.046;6.314;2023-04-29T08:29:18;101811.31;;;13.05;100.00
10852;BME280;5479;52.046;6.314;2023-04-29T08:31:46;101816.81;;;12.85;100.00
10852;BME280;5479;52.046;6.314;2023-04-29T08:34:15;101819.50;;;13.01;100.00
10852;BME280;5479;52.046;6.314;2023-04-29T08:36:43;101826.19;;;13.25;100.00
10852;BME280;5479;52.046;6.314;2023-04-29T08:39:11;101821.47;;;13.14;100.00
10852;BME280;5479;52.046;6.314;2023-04-29T08:41:45;101825.78;;;13.32;100.00
10852;BME280;5479;52.046;6.314;2023-04-29T08:44:17;101818.50;;;13.36;100.00
10852;BME280;5479;52.046;6.314;2023-04-29T08:46:45;101832.19;;;13.77;100.00
10852;BME280;5479;52.046;6.314;2023-04-29T08:49:14;101823.66;;;13.86;100.00
10852;BME280;5479;52.046;6.314;2023-04-29T08:51:42;101834.25;;;13.72;100.00
10852;BME280;5479;52.046;6.314;2023-04-29T08:54:13;101838.19;;;13.65;100.00
10852;BME280;5479;52.046;6.314;2023-04-29T08:56:44;101831.09;;;13.32;100.00
10852;BME280;5479;52.046;6.314;2023-04-29T08:59:13;101836.81;;;13.58;100.00
10852;BME280;5479;52.046;6.314;2023-04-29T09:01:42;101827.34;;;13.83;100.00
10852;BME280;5479;52.046;6.314;2023-04-29T09:04:24;101829.44;;;13.63;100.00
10852;BME280;5479;52.046;6.314;2023-04-29T09:06:57;101829.84;;;13.71;100.00
10852;BME280;5479;52.046;6.314;2023-04-29T09:09:26;101833.47;;;14.01;100.00
10852;BME280;5479;52.046;6.314;2023-04-29T09:11:56;101834.06;;;14.06;100.00
10852;BME280;5479;52.046;6.314;2023-04-29T09:14:24;101832.75;;;14.59;100.00
10852;BME280;5479;52.046;6.314;2023-04-29T09:16:52;101839.19;;;14.84;100.00
10852;BME280;5479;52.046;6.314;2023-04-29T09:19:32;101835.00;;;14.94;100.00
10852;BME280;5479;52.046;6.314;2023-04-29T09:22:01;101845.97;;;15.04;100.00
10852;BME280;5479;52.046;6.314;2023-04-29T09:24:30;101837.41;;;15.55;100.00
10852;BME280;5479;52.046;6.314;2023-04-29T09:26:58;101826.97;;;16.59;100.00
10852;BME280;5479;52.046;6.314;2023-04-29T09:29:27;101831.22;;;17.50;88.63
10852;BME280;5479;52.046;6.314;2023-04-29T09:31:56;101822.28;;;17.01;82.36
10852;BME280;5479;52.046;6.314;2023-04-29T09:34:32;101832.78;;;17.04;83.90
10852;BME280;5479;52.046;6.314;2023-04-29T09:37:01;101835.56;;;16.11;90.95
10852;BME280;5479;52.046;6.314;2023-04-29T09:39:37;101843.00;;;15.79;94.15
10852;BME280;5479;52.046;6.314;2023-04-29T09:42:05;101841.59;;;15.17;100.00
10852;BME280;5479;52.046;6.314;2023-04-29T09:44:35;101847.91;;;15.58;95.38
10852;BME280;5479;52.046;6.314;2023-04-29T09:47:04;101849.34;;;15.50;96.89
10852;BME280;5479;52.046;6.314;2023-04-29T09:49:34;101850.75;;;15.55;95.72
10852;BME280;5479;52.046;6.314;2023-04-29T09:52:05;101864.28;;;15.24;94.95
10852;BME280;5479;52.046;6.314;2023-04-29T09:54:34;101855.16;;;15.56;94.20
10852;BME280;5479;52.046;6.314;2023-04-29T09:57:05;101867.81;;;15.10;92.91
10852;BME280;5479;52.046;6.314;2023-04-29T09:59:35;101879.56;;;14.48;100.00
10852;BME280;5479;52.046;6.314;2023-04-29T10:02:06;101866.34;;;14.91;98.94
10852;BME280;5479;52.046;6.314;2023-04-29T10:04:39;101865.91;;;15.69;91.22
10852;BME280;5479;52.046;6.314;2023-04-29T10:07:13;101868.03;;;15.50;92.51
10852;BME280;5479;52.046;6.314;2023-04-29T10:09:44;101864.16;;;15.96;84.55
10852;BME280;5479;52.046;6.314;2023-04-29T10:12:14;101874.53;;;16.27;81.63
10852;BME280;5479;52.046;6.314;2023-04-29T10:14:47;101866.97;;;16.07;85.74
10852;BME280;5479;52.046;6.314;2023-04-29T10:17:21;101873.50;;;16.16;83.97
10852;BME280;5479;52.046;6.314;2023-04-29T10:19:57;101858.56;;;17.05;76.65
10852;BME280;5479;52.046;6.314;2023-04-29T10:22:34;101848.91;;;18.49;67.20
10852;BME280;5479;52.046;6.314;2023-04-29T10:25:05;101852.56;;;18.83;64.85
10852;BME280;5479;52.046;6.314;2023-04-29T10:27:36;101853.72;;;17.47;72.93
10852;BME280;5479;52.046;6.314;2023-04-29T10:30:06;101856.28;;;16.61;85.08
10852;BME280;5479;52.046;6.314;2023-04-29T10:32:39;101857.41;;;17.09;77.56
10852;BME280;5479;52.046;6.314;2023-04-29T10:35:11;101854.75;;;16.57;81.51
10852;BME280;5479;52.046;6.314;2023-04-29T10:37:39;101862.53;;;16.20;80.56
10852;BME280;5479;52.046;6.314;2023-04-29T10:40:11;101871.50;;;16.46;81.65
10852;BME280;5479;52.046;6.314;2023-04-29T10:42:45;101868.69;;;16.62;84.14
10852;BME280;5479;52.046;6.314;2023-04-29T10:45:22;101867.41;;;16.14;85.14
10852;BME280;5479;52.046;6.314;2023-04-29T10:48:11;101872.56;;;16.17;87.91
10852;BME280;5479;52.046;6.314;2023-04-29T10:51:00;101871.91;;;15.44;93.71
10852;BME280;5479;52.046;6.314;2023-04-29T10:53:29;101875.63;;;15.42;95.64
10852;BME280;5479;52.046;6.314;2023-04-29T10:56:02;101875.88;;;15.09;97.09
10852;BME280;5479;52.046;6.314;2023-04-29T10:58:36;101874.00;;;15.11;98.02
10852;BME280;5479;52.046;6.314;2023-04-29T11:01:04;101874.41;;;15.19;90.68
10852;BME280;5479;52.046;6.314;2023-04-29T11:03:48;101874.97;;;15.24;88.47
10852;BME280;5479;52.046;6.314;2023-04-29T11:06:23;101878.09;;;15.45;83.11
10852;BME280;5479;52.046;6.314;2023-04-29T11:09:02;101878.03;;;15.60;83.10
10852;BME280;5479;52.046;6.314;2023-04-29T11:12:00;101885.44;;;15.84;77.03
10852;BME280;5479;52.046;6.314;2023-04-29T11:14:32;101876.94;;;15.91;81.00
10852;BME280;5479;52.046;6.314;2023-04-29T11:17:03;101869.75;;;16.33;77.55
10852;BME280;5479;52.046;6.314;2023-04-29T11:19:33;101869.53;;;16.62;78.62
10852;BME280;5479;52.046;6.314;2023-04-29T11:22:24;101869.16;;;16.94;77.24
10852;BME280;5479;52.046;6.314;2023-04-29T11:24:54;101872.34;;;16.73;71.89
10852;BME280;5479;52.046;6.314;2023-04-29T11:27:23;101874.88;;;16.62;73.36
10852;BME280;5479;52.046;6.314;2023-04-29T11:29:53;101875.69;;;16.50;75.51
10852;BME280;5479;52.046;6.314;2023-04-29T11:32:26;101887.66;;;16.18;75.21
10852;BME280;5479;52.046;6.314;2023-04-29T11:35:06;101879.84;;;15.60;81.11
10852;BME280;5479;52.046;6.314;2023-04-29T11:37:36;101882.06;;;15.53;82.96
10852;BME280;5479;52.046;6.314;2023-04-29T11:40:05;101885.34;;;15.43;87.12
10852;BME280;5479;52.046;6.314;2023-04-29T11:42:33;101886.91;;;15.75;85.37
10852;BME280;5479;52.046;6.314;2023-04-29T11:45:02;101887.03;;;16.00;85.20
10852;BME280;5479;52.046;6.314;2023-04-29T11:47:30;101885.16;;;16.56;81.35
10852;BME280;5479;52.046;6.314;2023-04-29T11:50:02;101886.50;;;17.51;75.21
10852;BME280;5479;52.046;6.314;2023-04-29T11:52:37;101890.47;;;17.20;69.93
10852;BME280;5479;52.046;6.314;2023-04-29T11:55:08;101888.00;;;17.05;72.89
10852;BME280;5479;52.046;6.314;2023-04-29T11:57:36;101884.41;;;17.92;64.31
10852;BME280;5479;52.046;6.314;2023-04-29T12:00:08;101884.47;;;18.03;63.98
10852;BME280;5479;52.046;6.314;2023-04-29T12:02:38;101888.44;;;17.62;65.71
10852;BME280;5479;52.046;6.314;2023-04-29T12:05:07;101885.44;;;16.91;70.76
10852;BME280;5479;52.046;6.314;2023-04-29T12:07:36;101879.00;;;17.31;69.31
10852;BME280;5479;52.046;6.314;2023-04-29T12:10:07;101884.09;;;17.97;63.13
10852;BME280;5479;52.046;6.314;2023-04-29T12:12:37;101879.03;;;17.92;63.02
10852;BME280;5479;52.046;6.314;2023-04-29T12:15:07;101877.00;;;17.96;64.13
10852;BME280;5479;52.046;6.314;2023-04-29T12:17:36;101875.06;;;18.58;60.56
10852;BME280;5479;52.046;6.314;2023-04-29T12:20:07;101881.16;;;18.60;57.83
10852;BME280;5479;52.046;6.314;2023-04-29T12:22:38;101890.53;;;17.94;60.21
10852;BME280;5479;52.046;6.314;2023-04-29T12:25:07;101891.50;;;17.93;61.56
10852;BME280;5479;52.046;6.314;2023-04-29T12:27:35;101889.94;;;17.78;60.42
10852;BME280;5479;52.046;6.314;2023-04-29T12:30:06;101886.22;;;17.68;62.39
10852;BME280;5479;52.046;6.314;2023-04-29T12:32:34;101884.81;;;17.63;59.64
10852;BME280;5479;52.046;6.314;2023-04-29T12:35:03;101890.91;;;17.27;59.13
10852;BME280;5479;52.046;6.314;2023-04-29T12:37:32;101889.63;;;17.45;59.85
10852;BME280;5479;52.046;6.314;2023-04-29T12:40:03;101885.88;;;17.73;58.59
10852;BME280;5479;52.046;6.314;2023-04-29T12:42:31;101875.38;;;17.32;59.01
10852;BME280;5479;52.046;6.314;2023-04-29T12:44:59;101884.78;;;17.50;60.21
10852;BME280;5479;52.046;6.314;2023-04-29T12:47:31;101888.78;;;17.57;59.53
10852;BME280;5479;52.046;6.314;2023-04-29T12:50:00;101883.50;;;17.43;61.27
10852;BME280;5479;52.046;6.314;2023-04-29T12:52:28;101880.72;;;17.32;58.84
10852;BME280;5479;52.046;6.314;2023-04-29T12:54:56;101888.00;;;17.42;60.07
10852;BME280;5479;52.046;6.314;2023-04-29T12:57:27;101876.66;;;17.64;58.04
10852;BME280;5479;52.046;6.314;2023-04-29T12:59:55;101881.78;;;16.92;61.06
10852;BME280;5479;52.046;6.314;2023-04-29T13:02:23;101882.53;;;16.94;61.06
10852;BME280;5479;52.046;6.314;2023-04-29T13:04:51;101877.47;;;16.64;63.80
10852;BME280;5479;52.046;6.314;2023-04-29T13:07:20;101879.91;;;16.54;66.04
10852;BME280;5479;52.046;6.314;2023-04-29T13:09:49;101875.81;;;17.01;62.84